Flight Track Log - Related Links

Times and Time Zones

All times are in EDT time to prevent confusion due to time zone crossing. See the CSN3852 flight status page for this flight to view local times or setup timezone preferences in your user account.

Time Position Orientation Groundspeed Altitude Reporting Facility
EDT Latitude Longitude Course Direction KTS MPH feet Rate Location/Type
Thu 10:52:47 PM 31.2240 121.3310 355° North 160 184 1,400  Level FlightAware ADS-B
Thu 10:53:12 PM 31.2430 121.3290 355° North 176 203 2,200 1,636 Climbing FlightAware ADS-B
Thu 10:53:42 PM 31.2670 121.3210 344° North 206 237 2,900 1,600 Climbing FlightAware ADS-B
Thu 10:53:57 PM 31.2760 121.3120 319° Northwest 206 237 3,400 2,200 Climbing FlightAware ADS-B
Thu 10:54:12 PM 31.2830 121.2920 292° West 233 268 4,000 2,291 Climbing FlightAware ADS-B
Thu 10:54:52 PM 31.2810 121.2380 268° West 254 292 5,500 2,291 Climbing FlightAware ADS-B
Thu 10:55:07 PM 31.2760 121.2180 254° West 265 305 6,100 3,086 Climbing FlightAware ADS-B
Thu 10:55:27 PM 31.2630 121.1940 238° Southwest 256 295 7,300 2,073 Climbing FlightAware ADS-B
Thu 10:56:02 PM 31.2390 121.1550 234° Southwest 255 293 8,000 900 Climbing FlightAware ADS-B
Thu 10:56:27 PM 31.2190 121.1280 229° Southwest 259 298 8,200 400 Climbing FlightAware ADS-B
Thu 10:56:32 PM 31.2140 121.1260 199° South 267 307 8,200 1,800 Level FlightAware ADS-B
Thu 10:56:47 PM 31.1970 121.1190 199° South 272 313 8,800 2,509 Climbing FlightAware ADS-B
Thu 10:57:27 PM 31.1410 121.1220 177° South 294 338 10,500 1,875 Climbing FlightAware ADS-B
Thu 10:58:07 PM 31.0870 121.1130 188° South 339 390 11,300 1,855 Climbing FlightAware ADS-B
Thu 10:58:22 PM 31.0660 121.0920 221° Southwest 331 381 12,200 3,300 Climbing FlightAware ADS-B
Thu 10:58:47 PM 31.0500 121.0540 244° Southwest 330 380 13,500 2,914 Climbing FlightAware ADS-B
Thu 10:59:32 PM 31.0310 120.9770 254° West 343 395 15,600 2,753 Climbing FlightAware ADS-B
Thu 11:00:12 PM 31.0120 120.8980 254° West 359 413 17,400 2,337 Climbing FlightAware ADS-B
Thu 11:01:07 PM 30.9870 120.7960 254° West 362 417 19,300 2,191 Climbing FlightAware ADS-B
Thu 11:02:07 PM 30.9580 120.6800 254° West 372 428 21,600 2,211 Climbing FlightAware ADS-B
Thu 11:02:42 PM 30.9420 120.6120 255° West 380 437 22,800 900 Climbing FlightAware ADS-B
Thu 11:03:27 PM 30.9230 120.5330 254° West 380 437 22,800  Level FlightAware ADS-B
Thu 11:04:07 PM 30.9080 120.4660 255° West 380 437 22,800  Level FlightAware ADS-B
Thu 11:04:47 PM 30.8920 120.3990 254° West 380 437 22,800  Level FlightAware ADS-B
Thu 11:05:37 PM 30.8730 120.3140 255° West 380 437 22,800  Level FlightAware ADS-B
Thu 11:06:17 PM 30.8580 120.2470 255° West 380 437 22,800 4,611 Level FlightAware ADS-B
Thu 11:06:37 PM 30.6550 120.2550 178° South 30,100 7,964 Climbing FlightAware ADS-B
Thu 11:07:12 PM 30.6050 120.2030 222° Southwest 415 478 30,100  Level FlightAware ADS-B
Thu 11:08:02 PM 30.5350 120.1330 221° Southwest 418 481 30,100  Level FlightAware ADS-B
Thu 11:08:52 PM 30.4710 120.0730 219° Southwest 418 481 30,100  Level FlightAware ADS-B
Thu 11:09:32 PM 30.4200 120.0250 219° Southwest 418 481 30,100  Level FlightAware ADS-B
Thu 11:10:12 PM 30.3690 119.9770 219° Southwest 418 481 30,100  Level FlightAware ADS-B
Thu 11:10:52 PM 30.3180 119.9290 219° Southwest 418 481 30,100  Level FlightAware ADS-B
Thu 11:11:37 PM 30.2670 119.8810 219° Southwest 418 481 30,100  Level FlightAware ADS-B
Thu 11:12:22 PM 30.2030 119.8210 219° Southwest 418 481 30,100  Level FlightAware ADS-B
Thu 11:13:02 PM 30.1520 119.7740 219° Southwest 418 481 30,100  Level FlightAware ADS-B
Thu 11:13:42 PM 30.1010 119.7260 219° Southwest 418 481 30,100  Level FlightAware ADS-B
Thu 11:14:22 PM 30.0500 119.6780 219° Southwest 418 481 30,100  Level FlightAware ADS-B
Thu 11:15:02 PM 29.9980 119.6300 219° Southwest 418 481 30,100  Level FlightAware ADS-B
Thu 11:15:52 PM 29.9350 119.5700 220° Southwest 418 481 30,100  Level FlightAware ADS-B
Thu 11:16:32 PM 29.8830 119.5230 218° Southwest 418 481 30,100  Level FlightAware ADS-B
Thu 11:17:12 PM 29.8320 119.4750 219° Southwest 418 481 30,100  Level FlightAware ADS-B
Thu 11:19:00 PM 29.6757 119.4047 201° Southwest  Level Estimated
Thu 11:20:00 PM 29.5889 119.3657 201° Southwest  Level Estimated
Thu 11:21:00 PM 29.5021 119.3268 201° Southwest  Level Estimated
Thu 11:22:00 PM 29.4152 119.2879 201° Southwest  Level Estimated
Thu 11:22:52 PM 28.8390 119.5550 201° Southwest 443 510 30,100  Level FlightAware ADS-B
Thu 11:23:27 PM 28.7690 119.5440 188° South 442 509 30,100  Level FlightAware ADS-B
Thu 11:24:17 PM 28.6620 119.5360 184° South 446 513 30,100  Level FlightAware ADS-B
Thu 11:24:57 PM 28.5840 119.5320 183° South 446 513 30,100  Level FlightAware ADS-B
Thu 11:25:32 PM 28.5110 119.5280 183° South 448 516 30,100  Level FlightAware ADS-B
Thu 11:26:17 PM 28.4270 119.5240 182° South 448 516 30,100  Level FlightAware ADS-B
Thu 11:27:02 PM 28.3160 119.5170 183° South 447 514 30,100  Level FlightAware ADS-B
Thu 11:27:42 PM 28.2350 119.5120 183° South 447 514 30,100  Level FlightAware ADS-B
Thu 11:28:27 PM 28.1480 119.5070 183° South 449 517 30,100  Level FlightAware ADS-B
Thu 11:29:07 PM 28.0630 119.5050 181° South 450 518 30,100  Level FlightAware ADS-B
Thu 11:29:52 PM 27.9650 119.5040 181° South 449 517 30,100 -141 Level FlightAware ADS-B
Thu 11:30:32 PM 27.8840 119.5040 180° South 450 518 29,900 -282 Descending FlightAware ADS-B
Thu 11:31:17 PM 27.8000 119.5030 181° South 449 517 29,700 -141 Descending FlightAware ADS-B
Thu 11:31:57 PM 27.7290 119.5030 180° South 449 517 29,700  Level FlightAware ADS-B
Thu 11:32:37 PM 27.6590 119.5030 180° South 449 517 29,700 -1,482 Level FlightAware ADS-B
Thu 11:33:22 PM 27.5280 119.5010 181° South 449 517 27,600 -1,575 Descending FlightAware ADS-B
Thu 11:33:57 PM 27.4650 119.5010 180° South 449 517 27,600  Level FlightAware ADS-B
Thu 11:34:52 PM 27.3460 119.5020 180° South 454 522 27,600  Level FlightAware ADS-B
Thu 11:35:37 PM 27.2450 119.5000 181° South 451 519 27,600  Level FlightAware ADS-B
Thu 11:36:22 PM 27.1480 119.4990 181° South 453 521 27,600  Level FlightAware ADS-B
Thu 11:37:07 PM 27.0560 119.4970 181° South 456 525 27,600  Level FlightAware ADS-B
Thu 11:37:47 PM 26.9700 119.4970 180° South 458 527 27,600  Level FlightAware ADS-B
Thu 11:38:27 PM 26.8890 119.4970 180° South 461 531 27,600  Level FlightAware ADS-B
Thu 11:39:12 PM 26.7880 119.4960 181° South 463 533 27,600  Level FlightAware ADS-B
Thu 11:39:52 PM 26.7020 119.4960 180° South 464 534 27,600  Level FlightAware ADS-B
Thu 11:40:32 PM 26.6140 119.4950 181° South 463 533 27,600  Level FlightAware ADS-B
Thu 11:41:17 PM 26.5230 119.4950 180° South 460 529 27,600  Level FlightAware ADS-B
Thu 11:41:57 PM 26.4360 119.4940 181° South 459 528 27,600  Level FlightAware ADS-B
Thu 11:42:42 PM 26.3430 119.4930 181° South 460 529 27,600  Level FlightAware ADS-B
Thu 11:43:17 PM 26.2670 119.4930 180° South 458 527 27,600  Level FlightAware ADS-B
Thu 11:44:02 PM 26.1790 119.4860 184° South 455 524 27,600  Level FlightAware ADS-B
Thu 11:44:42 PM 26.1080 119.4800 184° South 455 524 27,600  Level FlightAware ADS-B
Thu 11:45:27 PM 26.0080 119.4180 209° Southwest 451 519 27,600  Level FlightAware ADS-B
Thu 11:46:12 PM 25.9100 119.3850 197° South 452 520 27,600  Level FlightAware ADS-B
Thu 11:46:52 PM 25.8310 119.3580 197° South 453 521 27,600  Level FlightAware ADS-B
Thu 11:47:32 PM 25.7570 119.3200 205° Southwest 438 504 27,600  Level FlightAware ADS-B
Thu 11:48:17 PM 25.6920 119.2480 225° Southwest 435 501 27,600  Level FlightAware ADS-B
Thu 11:48:57 PM 25.6380 119.1850 226° Southwest 439 505 27,600 -353 Level FlightAware ADS-B
Thu 11:49:42 PM 25.5760 119.1120 227° Southwest 443 510 27,100 -706 Descending FlightAware ADS-B
Thu 11:50:22 PM 25.5170 119.0430 227° Southwest 438 504 26,600 -525 Descending FlightAware ADS-B
Thu 11:51:02 PM 25.4590 118.9760 226° Southwest 435 501 26,400 -635 Descending FlightAware ADS-B
Thu 11:51:47 PM 25.3990 118.9050 227° Southwest 435 501 25,700 -565 Descending FlightAware ADS-B
Thu 11:52:27 PM 25.3450 118.8410 227° Southwest 436 502 25,600 -71 Descending FlightAware ADS-B
Thu 11:53:12 PM 25.2850 118.7680 228° Southwest 434 499 25,600  Level FlightAware ADS-B
Thu 11:53:52 PM 25.2270 118.6990 227° Southwest 433 498 25,600  Level FlightAware ADS-B
Thu 11:54:47 PM 25.1570 118.6150 227° Southwest 433 498 25,600  Level FlightAware ADS-B
Thu 11:55:27 PM 25.1110 118.5600 227° Southwest 433 498 25,600  Level FlightAware ADS-B
Thu 11:56:07 PM 25.0640 118.5050 227° Southwest 433 498 25,600  Level FlightAware ADS-B
Thu 11:56:47 PM 25.0180 118.4500 227° Southwest 433 498 25,600  Level FlightAware ADS-B
Thu 11:57:37 PM 24.9600 118.3810 227° Southwest 433 498 25,600  Level FlightAware ADS-B
Thu 11:58:17 PM 24.9130 118.3260 227° Southwest 433 498 25,600  Level FlightAware ADS-B
Fri 12:00:00 AM 24.7982 118.2032 224° Southwest  Level Estimated
Fri 12:01:00 AM 24.7312 118.1318 224° Southwest  Level Estimated
Fri 12:02:00 AM 24.6642 118.0604 224° Southwest  Level Estimated
Fri 12:03:00 AM 24.5972 117.9892 224° Southwest  Level Estimated
Fri 12:04:00 AM 24.5302 117.9180 224° Southwest  Level Estimated
Fri 12:05:00 AM 24.4631 117.8469 224° Southwest  Level Estimated
Fri 12:06:00 AM 24.3960 117.7758 224° Southwest  Level Estimated
Fri 12:07:00 AM 24.3289 117.7048 224° Southwest  Level Estimated
Fri 12:08:00 AM 24.2617 117.6340 224° Southwest  Level Estimated
Fri 12:09:00 AM 24.1945 117.5631 224° Southwest  Level Estimated
Fri 12:10:00 AM 24.1273 117.4924 224° Southwest  Level Estimated
Fri 12:11:00 AM 24.0600 117.4217 224° Southwest  Level Estimated
Fri 12:12:00 AM 23.9927 117.3511 224° Southwest  Level Estimated
Fri 12:13:00 AM 23.9254 117.2806 224° Southwest  Level Estimated
Fri 12:14:00 AM 23.8580 117.2102 224° Southwest  Level Estimated
Fri 12:15:00 AM 23.7906 117.1398 224° Southwest  Level Estimated
Fri 12:16:00 AM 23.7232 117.0695 224° Southwest  Level Estimated
Fri 12:17:00 AM 23.6557 116.9993 224° Southwest  Level Estimated
Fri 12:18:00 AM 23.5836 116.9243 224° Southwest  Level Estimated
Fri 12:19:00 AM 23.5114 116.8495 224° Southwest  Level Estimated
Fri 12:20:00 AM 23.4393 116.7747 224° Southwest  Level Estimated
Fri 12:21:00 AM 23.4269 116.7619 224° Southwest  Level Estimated
Fri 12:22:00 AM 23.4269 116.7619 43° Northeast  Level Estimated
Fri 12:23:00 AM 23.4269 116.7619 43° Northeast  Level Estimated
Fri 12:24:00 AM 23.4269 116.7619 43° Northeast  Level Estimated
Fri 12:25:00 AM 23.4269 116.7619 43° Northeast  Level Estimated
Fri 12:26:00 AM 23.4269 116.7619 43° Northeast  Level Estimated
Fri 12:27:00 AM 23.4269 116.7619 43° Northeast  Level Estimated
Fri 12:28:00 AM 23.4269 116.7619 43° Northeast  Level Estimated
Fri 12:29:00 AM 23.4269 116.7619 43° Northeast  Level Estimated
Fri 12:30:00 AM 23.4269 116.7619 43° Northeast  Level Estimated
Fri 12:31:00 AM 23.4269 116.7619 43° Northeast  Level Estimated
Fri 12:32:00 AM 23.4269 116.7619 43° Northeast  Level Estimated
Fri 12:33:00 AM 23.4269 116.7619 43° Northeast  Level Estimated
Fri 12:34:00 AM 23.4269 116.7619 43° Northeast  Level Estimated
Fri 12:35:00 AM 23.4269 116.7619 43° Northeast  Level Estimated
Fri 12:36:00 AM 23.4269 116.7619 43° Northeast  Level Estimated

Login

Don't have an account? Register now (free) for customized features, flight alerts, and more!